Terminal Aerodrome Forecast
Issued by NWS Duluth, MN

Home | Current Version | Previous Version | Graphics & Text | Print | Product List | Glossary On
Versions: 1 2 3 4 5 6 7 8 9 10 11 12 13 14 15
000
FTUS43 KDLH 272300
TAFINL
TAF
KINL 272333Z 2800/2824 01008KT P6SM SCT250
     FM280200 03004KT P6SM SCT250
     FM281300 13008KT P6SM BKN120 BKN200
     FM282000 16011G15KT P6SM VCSH SCT050 BKN080 WS020/21030KT=

USA.gov is the U.S. government's official web portal to all federal, state and local government web resources and services.